Terminal Aerodrome Forecast
Issued by NWS

Home | Current Version | Previous Version | Text Only | Print | Product List | Glossary On
Versions: 1 2 3 4 5 6 7 8 9 10 11 12 13 14 15 16 17 18 19 20 21 22
000
FTUS46 KOTX 191740
TAFMWH
TAF
KMWH 191740Z 1918/2018 34004KT 3SM BR SCT001
     FM191900 21009KT P6SM FEW006 SCT100 BKN200
     FM200200 18006KT P6SM VCSH BKN050 OVC080
     FM200700 18005KT P6SM SCT100 BKN200
     FM201200 VRB03KT 5SM BR SCT001 BKN080=

USA.gov is the U.S. government's official web portal to all federal, state and local government web resources and services.